sensor_id;sensor_type;location;lat;lon;timestamp;temperature;humidity
68578;SHT31;61668;45.388;11.784;2022-10-22T00:02:22;17.26;76.31
68578;SHT31;61668;45.388;11.784;2022-10-22T00:04:48;17.24;76.43
68578;SHT31;61668;45.388;11.784;2022-10-22T00:07:16;17.23;76.51
68578;SHT31;61668;45.388;11.784;2022-10-22T00:09:42;17.22;76.55
68578;SHT31;61668;45.388;11.784;2022-10-22T00:12:08;17.19;76.60
68578;SHT31;61668;45.388;11.784;2022-10-22T00:14:35;17.18;76.69
68578;SHT31;61668;45.388;11.784;2022-10-22T00:17:01;17.19;76.72
68578;SHT31;61668;45.388;11.784;2022-10-22T00:19:27;17.18;76.77
68578;SHT31;61668;45.388;11.784;2022-10-22T00:21:53;17.19;76.84
68578;SHT31;61668;45.388;11.784;2022-10-22T00:24:19;17.20;76.93
68578;SHT31;61668;45.388;11.784;2022-10-22T00:26:45;17.22;76.92
68578;SHT31;61668;45.388;11.784;2022-10-22T00:29:11;17.24;76.91
68578;SHT31;61668;45.388;11.784;2022-10-22T00:31:36;17.26;76.89
68578;SHT31;61668;45.388;11.784;2022-10-22T00:34:02;17.27;76.80
68578;SHT31;61668;45.388;11.784;2022-10-22T00:36:27;17.27;76.80
68578;SHT31;61668;45.388;11.784;2022-10-22T00:38:53;17.26;76.82
68578;SHT31;61668;45.388;11.784;2022-10-22T00:41:18;17.27;76.80
68578;SHT31;61668;45.388;11.784;2022-10-22T00:43:52;17.27;76.79
68578;SHT31;61668;45.388;11.784;2022-10-22T00:46:25;17.27;76.80
68578;SHT31;61668;45.388;11.784;2022-10-22T00:48:51;17.28;76.78
68578;SHT31;61668;45.388;11.784;2022-10-22T00:51:19;17.28;76.79
68578;SHT31;61668;45.388;11.784;2022-10-22T00:53:50;17.29;76.79
68578;SHT31;61668;45.388;11.784;2022-10-22T00:56:20;17.29;76.72
68578;SHT31;61668;45.388;11.784;2022-10-22T00:58:49;17.29;76.77
68578;SHT31;61668;45.388;11.784;2022-10-22T01:01:22;17.29;76.76
68578;SHT31;61668;45.388;11.784;2022-10-22T01:03:52;17.27;76.80
68578;SHT31;61668;45.388;11.784;2022-10-22T01:06:29;17.28;76.92
68578;SHT31;61668;45.388;11.784;2022-10-22T01:09:02;17.28;76.92
68578;SHT31;61668;45.388;11.784;2022-10-22T01:25:57;17.24;77.41
68578;SHT31;61668;45.388;11.784;2022-10-22T01:29:08;17.23;77.58
68578;SHT31;61668;45.388;11.784;2022-10-22T01:31:41;17.19;77.62
68578;SHT31;61668;45.388;11.784;2022-10-22T01:34:13;17.17;77.76
68578;SHT31;61668;45.388;11.784;2022-10-22T01:36:42;17.15;77.85
68578;SHT31;61668;45.388;11.784;2022-10-22T01:39:09;17.14;77.84
68578;SHT31;61668;45.388;11.784;2022-10-22T01:41:39;17.13;77.93
68578;SHT31;61668;45.388;11.784;2022-10-22T01:44:28;17.12;78.06
68578;SHT31;61668;45.388;11.784;2022-10-22T01:47:00;17.13;78.14
68578;SHT31;61668;45.388;11.784;2022-10-22T02:01:47;17.15;78.34
68578;SHT31;61668;45.388;11.784;2022-10-22T02:04:32;17.15;78.45
68578;SHT31;61668;45.388;11.784;2022-10-22T02:07:02;17.17;78.43
68578;SHT31;61668;45.388;11.784;2022-10-22T02:09:32;17.20;78.56
68578;SHT31;61668;45.388;11.784;2022-10-22T02:11:59;17.20;78.57
68578;SHT31;61668;45.388;11.784;2022-10-22T02:14:29;17.21;78.59
68578;SHT31;61668;45.388;11.784;2022-10-22T02:16:56;17.20;78.68
68578;SHT31;61668;45.388;11.784;2022-10-22T02:22:05;17.24;78.80
68578;SHT31;61668;45.388;11.784;2022-10-22T02:24:31;17.25;78.78
68578;SHT31;61668;45.388;11.784;2022-10-22T02:26:59;17.26;78.85
68578;SHT31;61668;45.388;11.784;2022-10-22T02:30:06;17.25;78.80
68578;SHT31;61668;45.388;11.784;2022-10-22T02:32:39;17.25;78.81
68578;SHT31;61668;45.388;11.784;2022-10-22T02:35:12;17.25;78.88
68578;SHT31;61668;45.388;11.784;2022-10-22T02:37:42;17.25;78.87
68578;SHT31;61668;45.388;11.784;2022-10-22T02:40:09;17.26;78.89
68578;SHT31;61668;45.388;11.784;2022-10-22T02:42:35;17.27;78.91
68578;SHT31;61668;45.388;11.784;2022-10-22T02:45:03;17.30;78.88
68578;SHT31;61668;45.388;11.784;2022-10-22T02:47:29;17.31;78.90
68578;SHT31;61668;45.388;11.784;2022-10-22T02:49:55;17.33;78.93
68578;SHT31;61668;45.388;11.784;2022-10-22T02:52:20;17.35;78.93
68578;SHT31;61668;45.388;11.784;2022-10-22T02:54:46;17.34;78.88
68578;SHT31;61668;45.388;11.784;2022-10-22T02:57:11;17.35;78.95
68578;SHT31;61668;45.388;11.784;2022-10-22T02:59:37;17.36;78.87
68578;SHT31;61668;45.388;11.784;2022-10-22T03:02:02;17.37;78.84
68578;SHT31;61668;45.388;11.784;2022-10-22T03:04:28;17.40;78.99
68578;SHT31;61668;45.388;11.784;2022-10-22T03:06:54;17.41;78.98
68578;SHT31;61668;45.388;11.784;2022-10-22T03:09:19;17.43;78.98
68578;SHT31;61668;45.388;11.784;2022-10-22T03:11:45;17.42;78.88
68578;SHT31;61668;45.388;11.784;2022-10-22T03:14:11;17.40;79.00
68578;SHT31;61668;45.388;11.784;2022-10-22T03:16:37;17.40;78.95
68578;SHT31;61668;45.388;11.784;2022-10-22T03:19:02;17.40;79.00
68578;SHT31;61668;45.388;11.784;2022-10-22T03:21:35;17.42;79.00
68578;SHT31;61668;45.388;11.784;2022-10-22T03:24:07;17.40;78.98
68578;SHT31;61668;45.388;11.784;2022-10-22T03:26:36;17.40;79.12
68578;SHT31;61668;45.388;11.784;2022-10-22T03:29:05;17.41;79.20
68578;SHT31;61668;45.388;11.784;2022-10-22T03:31:32;17.41;79.19
68578;SHT31;61668;45.388;11.784;2022-10-22T03:33:57;17.40;79.17
68578;SHT31;61668;45.388;11.784;2022-10-22T03:36:23;17.38;79.24
68578;SHT31;61668;45.388;11.784;2022-10-22T03:38:49;17.40;79.32
68578;SHT31;61668;45.388;11.784;2022-10-22T03:41:15;17.44;79.24
68578;SHT31;61668;45.388;11.784;2022-10-22T03:43:40;17.45;79.18
68578;SHT31;61668;45.388;11.784;2022-10-22T03:46:06;17.45;79.25
68578;SHT31;61668;45.388;11.784;2022-10-22T03:48:32;17.44;79.26
68578;SHT31;61668;45.388;11.784;2022-10-22T03:50:57;17.43;79.53
68578;SHT31;61668;45.388;11.784;2022-10-22T03:53:23;17.44;79.48
68578;SHT31;61668;45.388;11.784;2022-10-22T03:55:49;17.43;79.40
68578;SHT31;61668;45.388;11.784;2022-10-22T03:58:15;17.44;79.50
68578;SHT31;61668;45.388;11.784;2022-10-22T04:00:40;17.45;79.59
68578;SHT31;61668;45.388;11.784;2022-10-22T04:03:06;17.47;79.71
68578;SHT31;61668;45.388;11.784;2022-10-22T04:05:32;17.50;79.71
68578;SHT31;61668;45.388;11.784;2022-10-22T04:07:58;17.53;79.59
68578;SHT31;61668;45.388;11.784;2022-10-22T04:10:24;17.53;79.58
68578;SHT31;61668;45.388;11.784;2022-10-22T04:12:50;17.50;79.70
68578;SHT31;61668;45.388;11.784;2022-10-22T04:15:15;17.49;79.72
68578;SHT31;61668;45.388;11.784;2022-10-22T04:17:41;17.48;79.80
68578;SHT31;61668;45.388;11.784;2022-10-22T04:20:07;17.48;79.78
68578;SHT31;61668;45.388;11.784;2022-10-22T04:22:33;17.46;79.59
68578;SHT31;61668;45.388;11.784;2022-10-22T04:25:00;17.43;79.61
68578;SHT31;61668;45.388;11.784;2022-10-22T04:27:30;17.37;79.71
68578;SHT31;61668;45.388;11.784;2022-10-22T04:29:57;17.34;79.89
68578;SHT31;61668;45.388;11.784;2022-10-22T04:32:23;17.32;80.04
68578;SHT31;61668;45.388;11.784;2022-10-22T04:34:50;17.30;80.01
68578;SHT31;61668;45.388;11.784;2022-10-22T04:37:15;17.28;80.09
68578;SHT31;61668;45.388;11.784;2022-10-22T04:39:41;17.30;80.25
68578;SHT31;61668;45.388;11.784;2022-10-22T04:42:06;17.33;80.30
68578;SHT31;61668;45.388;11.784;2022-10-22T04:44:32;17.37;80.31
68578;SHT31;61668;45.388;11.784;2022-10-22T04:46:57;17.42;80.26
68578;SHT31;61668;45.388;11.784;2022-10-22T04:49:23;17.42;80.24
68578;SHT31;61668;45.388;11.784;2022-10-22T04:51:48;17.41;80.24
68578;SHT31;61668;45.388;11.784;2022-10-22T04:54:14;17.39;80.26
68578;SHT31;61668;45.388;11.784;2022-10-22T04:56:40;17.38;80.32
68578;SHT31;61668;45.388;11.784;2022-10-22T04:59:06;17.40;80.30
68578;SHT31;61668;45.388;11.784;2022-10-22T05:01:37;17.39;80.26
68578;SHT31;61668;45.388;11.784;2022-10-22T05:04:06;17.39;80.34
68578;SHT31;61668;45.388;11.784;2022-10-22T05:06:34;17.38;80.33
68578;SHT31;61668;45.388;11.784;2022-10-22T05:09:03;17.40;80.49
68578;SHT31;61668;45.388;11.784;2022-10-22T05:11:36;17.43;80.47
68578;SHT31;61668;45.388;11.784;2022-10-22T05:14:05;17.42;80.44
68578;SHT31;61668;45.388;11.784;2022-10-22T05:16:32;17.41;80.54
68578;SHT31;61668;45.388;11.784;2022-10-22T05:18:59;17.39;80.55
68578;SHT31;61668;45.388;11.784;2022-10-22T05:21:26;17.37;80.62
68578;SHT31;61668;45.388;11.784;2022-10-22T05:23:52;17.39;80.70
68578;SHT31;61668;45.388;11.784;2022-10-22T05:26:19;17.42;80.72
68578;SHT31;61668;45.388;11.784;2022-10-22T05:28:46;17.47;80.70
68578;SHT31;61668;45.388;11.784;2022-10-22T05:31:14;17.50;80.60
68578;SHT31;61668;45.388;11.784;2022-10-22T05:33:41;17.47;80.43
68578;SHT31;61668;45.388;11.784;2022-10-22T05:36:08;17.44;80.58
68578;SHT31;61668;45.388;11.784;2022-10-22T05:38:42;17.44;80.62
68578;SHT31;61668;45.388;11.784;2022-10-22T05:41:11;17.45;80.62
68578;SHT31;61668;45.388;11.784;2022-10-22T05:43:40;17.45;80.70
68578;SHT31;61668;45.388;11.784;2022-10-22T05:46:07;17.45;80.70
68578;SHT31;61668;45.388;11.784;2022-10-22T05:48:35;17.47;80.66
68578;SHT31;61668;45.388;11.784;2022-10-22T05:51:02;17.47;80.61
68578;SHT31;61668;45.388;11.784;2022-10-22T05:53:38;17.48;80.68
68578;SHT31;61668;45.388;11.784;2022-10-22T05:56:08;17.51;80.67
68578;SHT31;61668;45.388;11.784;2022-10-22T05:58:39;17.52;80.66
68578;SHT31;61668;45.388;11.784;2022-10-22T06:01:07;17.54;80.68
68578;SHT31;61668;45.388;11.784;2022-10-22T06:03:46;17.56;80.71
68578;SHT31;61668;45.388;11.784;2022-10-22T06:08:52;17.56;80.69
68578;SHT31;61668;45.388;11.784;2022-10-22T06:11:20;17.58;80.80
68578;SHT31;61668;45.388;11.784;2022-10-22T06:13:47;17.62;80.86
68578;SHT31;61668;45.388;11.784;2022-10-22T06:16:14;17.63;80.79
68578;SHT31;61668;45.388;11.784;2022-10-22T06:18:40;17.61;80.79
68578;SHT31;61668;45.388;11.784;2022-10-22T06:21:07;17.63;80.80
68578;SHT31;61668;45.388;11.784;2022-10-22T06:23:38;17.65;80.82
68578;SHT31;61668;45.388;11.784;2022-10-22T06:26:05;17.66;80.87
68578;SHT31;61668;45.388;11.784;2022-10-22T06:28:31;17.70;80.87
68578;SHT31;61668;45.388;11.784;2022-10-22T06:30:58;17.72;80.83
68578;SHT31;61668;45.388;11.784;2022-10-22T06:33:25;17.74;80.97
68578;SHT31;61668;45.388;11.784;2022-10-22T06:35:52;17.77;81.04
68578;SHT31;61668;45.388;11.784;2022-10-22T06:38:18;17.81;81.10
68578;SHT31;61668;45.388;11.784;2022-10-22T06:40:43;17.85;81.11
68578;SHT31;61668;45.388;11.784;2022-10-22T06:43:12;17.89;81.18
68578;SHT31;61668;45.388;11.784;2022-10-22T06:45:38;17.93;81.27
68578;SHT31;61668;45.388;11.784;2022-10-22T06:48:05;17.97;81.29
68578;SHT31;61668;45.388;11.784;2022-10-22T06:50:30;18.00;81.31
68578;SHT31;61668;45.388;11.784;2022-10-22T06:52:58;18.06;81.38
68578;SHT31;61668;45.388;11.784;2022-10-22T06:55:24;18.13;81.36
68578;SHT31;61668;45.388;11.784;2022-10-22T06:57:50;18.18;81.31
68578;SHT31;61668;45.388;11.784;2022-10-22T07:00:15;18.23;81.36
68578;SHT31;61668;45.388;11.784;2022-10-22T07:02:41;18.25;81.41
68578;SHT31;61668;45.388;11.784;2022-10-22T07:05:07;18.27;81.51
68578;SHT31;61668;45.388;11.784;2022-10-22T07:07:33;18.32;81.67
68578;SHT31;61668;45.388;11.784;2022-10-22T07:09:58;18.41;81.74
68578;SHT31;61668;45.388;11.784;2022-10-22T07:12:24;18.48;81.70
68578;SHT31;61668;45.388;11.784;2022-10-22T07:14:50;18.55;81.66
68578;SHT31;61668;45.388;11.784;2022-10-22T07:17:16;18.61;81.63
68578;SHT31;61668;45.388;11.784;2022-10-22T07:19:41;18.65;81.57
68578;SHT31;61668;45.388;11.784;2022-10-22T07:22:06;18.69;81.58
68578;SHT31;61668;45.388;11.784;2022-10-22T07:24:32;18.75;81.53
68578;SHT31;61668;45.388;11.784;2022-10-22T07:26:57;18.79;81.54
68578;SHT31;61668;45.388;11.784;2022-10-22T07:29:23;18.84;81.48
68578;SHT31;61668;45.388;11.784;2022-10-22T07:31:48;18.89;81.48
68578;SHT31;61668;45.388;11.784;2022-10-22T07:34:14;18.97;81.53
68578;SHT31;61668;45.388;11.784;2022-10-22T07:36:39;19.05;81.47
68578;SHT31;61668;45.388;11.784;2022-10-22T07:39:05;19.13;81.31
68578;SHT31;61668;45.388;11.784;2022-10-22T07:41:30;19.20;81.13
68578;SHT31;61668;45.388;11.784;2022-10-22T07:43:56;19.27;81.02
68578;SHT31;61668;45.388;11.784;2022-10-22T07:46:22;19.33;80.94
68578;SHT31;61668;45.388;11.784;2022-10-22T07:48:49;19.40;80.92
68578;SHT31;61668;45.388;11.784;2022-10-22T07:51:15;19.48;80.90
68578;SHT31;61668;45.388;11.784;2022-10-22T07:53:41;19.55;80.72
68578;SHT31;61668;45.388;11.784;2022-10-22T07:56:07;19.66;80.63
68578;SHT31;61668;45.388;11.784;2022-10-22T07:58:33;19.77;80.42
68578;SHT31;61668;45.388;11.784;2022-10-22T08:01:00;19.91;80.33
68578;SHT31;61668;45.388;11.784;2022-10-22T08:03:27;20.03;80.00
68578;SHT31;61668;45.388;11.784;2022-10-22T08:05:53;20.22;79.55
68578;SHT31;61668;45.388;11.784;2022-10-22T08:08:19;20.39;79.46
68578;SHT31;61668;45.388;11.784;2022-10-22T08:10:46;20.54;79.20
68578;SHT31;61668;45.388;11.784;2022-10-22T08:13:16;20.72;78.48
68578;SHT31;61668;45.388;11.784;2022-10-22T08:15:42;20.94;78.15
68578;SHT31;61668;45.388;11.784;2022-10-22T08:18:07;21.18;77.54
68578;SHT31;61668;45.388;11.784;2022-10-22T08:20:35;21.45;77.01
68578;SHT31;61668;45.388;11.784;2022-10-22T08:23:00;21.73;76.29
68578;SHT31;61668;45.388;11.784;2022-10-22T08:25:26;22.03;75.45
68578;SHT31;61668;45.388;11.784;2022-10-22T08:27:53;22.31;74.74
68578;SHT31;61668;45.388;11.784;2022-10-22T08:30:18;22.51;74.41
68578;SHT31;61668;45.388;11.784;2022-10-22T08:32:44;22.69;73.53
68578;SHT31;61668;45.388;11.784;2022-10-22T08:35:10;22.99;73.05
68578;SHT31;61668;45.388;11.784;2022-10-22T08:37:35;23.27;72.54
68578;SHT31;61668;45.388;11.784;2022-10-22T08:40:01;23.42;71.85
68578;SHT31;61668;45.388;11.784;2022-10-22T08:42:58;23.73;70.84
68578;SHT31;61668;45.388;11.784;2022-10-22T08:48:35;23.85;68.80
68578;SHT31;61668;45.388;11.784;2022-10-22T08:51:06;24.07;67.95
68578;SHT31;61668;45.388;11.784;2022-10-22T08:54:27;24.42;66.72
68578;SHT31;61668;45.388;11.784;2022-10-22T08:56:30;24.78;65.89
68578;SHT31;61668;45.388;11.784;2022-10-22T08:59:03;25.13;65.55
68578;SHT31;61668;45.388;11.784;2022-10-22T09:01:37;25.40;64.51
68578;SHT31;61668;45.388;11.784;2022-10-22T09:06:46;25.95;62.92
68578;SHT31;61668;45.388;11.784;2022-10-22T09:09:14;25.92;62.92
68578;SHT31;61668;45.388;11.784;2022-10-22T09:11:46;25.73;63.04
68578;SHT31;61668;45.388;11.784;2022-10-22T09:14:15;25.56;62.68
68578;SHT31;61668;45.388;11.784;2022-10-22T09:22:00;25.14;62.89
68578;SHT31;61668;45.388;11.784;2022-10-22T09:24:39;25.16;63.19
68578;SHT31;61668;45.388;11.784;2022-10-22T09:27:15;25.35;62.76
68578;SHT31;61668;45.388;11.784;2022-10-22T09:29:44;25.42;62.43
68578;SHT31;61668;45.388;11.784;2022-10-22T09:32:13;25.32;62.20
68578;SHT31;61668;45.388;11.784;2022-10-22T09:34:42;25.11;62.63
68578;SHT31;61668;45.388;11.784;2022-10-22T09:37:12;24.90;62.53
68578;SHT31;61668;45.388;11.784;2022-10-22T09:39:44;24.78;62.52
68578;SHT31;61668;45.388;11.784;2022-10-22T09:42:14;24.70;62.74
68578;SHT31;61668;45.388;11.784;2022-10-22T09:44:41;24.60;62.49
68578;SHT31;61668;45.388;11.784;2022-10-22T09:53:03;24.23;63.21
68578;SHT31;61668;45.388;11.784;2022-10-22T09:55:50;24.16;63.78
68578;SHT31;61668;45.388;11.784;2022-10-22T09:58:19;24.14;63.89
68578;SHT31;61668;45.388;11.784;2022-10-22T10:00:49;24.07;63.71
68578;SHT31;61668;45.388;11.784;2022-10-22T10:03:24;23.97;63.63
68578;SHT31;61668;45.388;11.784;2022-10-22T10:05:54;23.85;63.67
68578;SHT31;61668;45.388;11.784;2022-10-22T10:08:23;23.77;63.86
68578;SHT31;61668;45.388;11.784;2022-10-22T10:10:55;23.72;64.02
68578;SHT31;61668;45.388;11.784;2022-10-22T10:13:39;23.80;63.83
68578;SHT31;61668;45.388;11.784;2022-10-22T10:18:57;24.00;63.91
68578;SHT31;61668;45.388;11.784;2022-10-22T10:21:37;24.04;63.75
68578;SHT31;61668;45.388;11.784;2022-10-22T10:24:47;24.02;63.66
68578;SHT31;61668;45.388;11.784;2022-10-22T10:30:05;24.03;63.77
68578;SHT31;61668;45.388;11.784;2022-10-22T10:32:58;24.15;63.57
68578;SHT31;61668;45.388;11.784;2022-10-22T10:38:36;24.27;63.23
68578;SHT31;61668;45.388;11.784;2022-10-22T10:49:47;24.29;63.49
68578;SHT31;61668;45.388;11.784;2022-10-22T10:52:20;24.27;63.56
68578;SHT31;61668;45.388;11.784;2022-10-22T11:00:57;24.35;62.87
68578;SHT31;61668;45.388;11.784;2022-10-22T11:03:58;24.28;63.21
68578;SHT31;61668;45.388;11.784;2022-10-22T11:06:51;24.25;63.11
68578;SHT31;61668;45.388;11.784;2022-10-22T11:09:29;24.14;63.07
68578;SHT31;61668;45.388;11.784;2022-10-22T11:12:03;24.02;63.90
68578;SHT31;61668;45.388;11.784;2022-10-22T11:15:13;23.91;64.62
68578;SHT31;61668;45.388;11.784;2022-10-22T11:17:53;23.81;65.49
68578;SHT31;61668;45.388;11.784;2022-10-22T11:20:32;23.72;65.89
68578;SHT31;61668;45.388;11.784;2022-10-22T11:23:11;23.63;66.10
68578;SHT31;61668;45.388;11.784;2022-10-22T11:25:56;23.60;66.47
68578;SHT31;61668;45.388;11.784;2022-10-22T11:28:28;23.56;66.30
68578;SHT31;61668;45.388;11.784;2022-10-22T11:31:23;23.53;66.77
68578;SHT31;61668;45.388;11.784;2022-10-22T11:33:53;23.52;66.90
68578;SHT31;61668;45.388;11.784;2022-10-22T11:36:27;23.50;66.76
68578;SHT31;61668;45.388;11.784;2022-10-22T11:38:55;23.45;66.80
68578;SHT31;61668;45.388;11.784;2022-10-22T11:41:23;23.45;67.08
68578;SHT31;61668;45.388;11.784;2022-10-22T11:44:08;23.49;67.10
68578;SHT31;61668;45.388;11.784;2022-10-22T11:46:57;23.49;66.95
68578;SHT31;61668;45.388;11.784;2022-10-22T11:49:40;23.52;66.96
68578;SHT31;61668;45.388;11.784;2022-10-22T11:52:37;23.58;66.97
68578;SHT31;61668;45.388;11.784;2022-10-22T11:55:27;23.62;66.22
68578;SHT31;61668;45.388;11.784;2022-10-22T11:57:58;23.57;66.08
68578;SHT31;61668;45.388;11.784;2022-10-22T12:00:31;23.46;66.62
68578;SHT31;61668;45.388;11.784;2022-10-22T12:03:22;23.33;67.14
68578;SHT31;61668;45.388;11.784;2022-10-22T12:08:42;23.06;67.61
68578;SHT31;61668;45.388;11.784;2022-10-22T12:22:36;22.74;67.98
68578;SHT31;61668;45.388;11.784;2022-10-22T12:25:22;22.77;68.01
68578;SHT31;61668;45.388;11.784;2022-10-22T12:27:55;22.85;68.02
68578;SHT31;61668;45.388;11.784;2022-10-22T12:30:28;22.89;67.72
68578;SHT31;61668;45.388;11.784;2022-10-22T12:32:59;22.88;67.49
68578;SHT31;61668;45.388;11.784;2022-10-22T12:35:29;22.84;67.10
68578;SHT31;61668;45.388;11.784;2022-10-22T12:38:12;22.84;67.26
68578;SHT31;61668;45.388;11.784;2022-10-22T12:40:41;22.87;66.77
68578;SHT31;61668;45.388;11.784;2022-10-22T12:43:11;22.89;66.68
68578;SHT31;61668;45.388;11.784;2022-10-22T12:45:39;22.90;66.59
68578;SHT31;61668;45.388;11.784;2022-10-22T12:50:46;23.04;66.02
68578;SHT31;61668;45.388;11.784;2022-10-22T12:53:22;23.08;64.58
68578;SHT31;61668;45.388;11.784;2022-10-22T12:55:54;23.07;64.16
68578;SHT31;61668;45.388;11.784;2022-10-22T12:58:26;23.06;63.58
68578;SHT31;61668;45.388;11.784;2022-10-22T13:01:01;23.07;63.93
68578;SHT31;61668;45.388;11.784;2022-10-22T13:03:35;23.08;63.85
68578;SHT31;61668;45.388;11.784;2022-10-22T13:08:57;22.93;63.56
68578;SHT31;61668;45.388;11.784;2022-10-22T13:11:32;22.81;63.80
68578;SHT31;61668;45.388;11.784;2022-10-22T13:14:35;22.72;63.79
68578;SHT31;61668;45.388;11.784;2022-10-22T13:24:57;22.39;64.72
68578;SHT31;61668;45.388;11.784;2022-10-22T13:30:27;22.36;65.04
68578;SHT31;61668;45.388;11.784;2022-10-22T13:32:58;22.33;65.12
68578;SHT31;61668;45.388;11.784;2022-10-22T13:35:33;22.28;65.30
68578;SHT31;61668;45.388;11.784;2022-10-22T13:38:02;22.23;65.70
68578;SHT31;61668;45.388;11.784;2022-10-22T13:40:42;22.19;66.04
68578;SHT31;61668;45.388;11.784;2022-10-22T13:43:07;22.16;66.18
68578;SHT31;61668;45.388;11.784;2022-10-22T13:45:33;22.13;66.45
68578;SHT31;61668;45.388;11.784;2022-10-22T13:47:59;22.10;66.68
68578;SHT31;61668;45.388;11.784;2022-10-22T13:50:24;22.08;66.81
68578;SHT31;61668;45.388;11.784;2022-10-22T13:52:54;22.07;66.65
68578;SHT31;61668;45.388;11.784;2022-10-22T13:55:23;22.07;66.95
68578;SHT31;61668;45.388;11.784;2022-10-22T13:57:54;22.08;67.04
68578;SHT31;61668;45.388;11.784;2022-10-22T14:00:22;22.07;67.21
68578;SHT31;61668;45.388;11.784;2022-10-22T14:02:50;22.05;67.14
68578;SHT31;61668;45.388;11.784;2022-10-22T14:05:18;22.00;67.03
68578;SHT31;61668;45.388;11.784;2022-10-22T14:07:44;21.95;67.03
68578;SHT31;61668;45.388;11.784;2022-10-22T14:10:14;21.91;67.04
68578;SHT31;61668;45.388;11.784;2022-10-22T14:12:43;21.86;67.15
68578;SHT31;61668;45.388;11.784;2022-10-22T14:15:13;21.82;67.01
68578;SHT31;61668;45.388;11.784;2022-10-22T14:17:42;21.75;67.06
68578;SHT31;61668;45.388;11.784;2022-10-22T14:23:16;21.70;67.07
68578;SHT31;61668;45.388;11.784;2022-10-22T14:25:44;21.72;67.54
68578;SHT31;61668;45.388;11.784;2022-10-22T14:28:10;21.74;67.56
68578;SHT31;61668;45.388;11.784;2022-10-22T14:30:36;21.75;67.57
68578;SHT31;61668;45.388;11.784;2022-10-22T14:33:08;21.73;67.20
68578;SHT31;61668;45.388;11.784;2022-10-22T14:35:40;21.67;67.23
68578;SHT31;61668;45.388;11.784;2022-10-22T14:38:05;21.63;67.50
68578;SHT31;61668;45.388;11.784;2022-10-22T14:40:31;21.58;67.60
68578;SHT31;61668;45.388;11.784;2022-10-22T14:42:56;21.53;67.71
68578;SHT31;61668;45.388;11.784;2022-10-22T14:45:23;21.48;67.70
68578;SHT31;61668;45.388;11.784;2022-10-22T14:47:51;21.42;67.82
68578;SHT31;61668;45.388;11.784;2022-10-22T14:50:21;21.39;67.92
68578;SHT31;61668;45.388;11.784;2022-10-22T14:52:49;21.37;67.81
68578;SHT31;61668;45.388;11.784;2022-10-22T14:55:16;21.37;67.83
68578;SHT31;61668;45.388;11.784;2022-10-22T14:57:43;21.34;67.60
68578;SHT31;61668;45.388;11.784;2022-10-22T15:00:10;21.31;67.27
68578;SHT31;61668;45.388;11.784;2022-10-22T15:02:39;21.27;67.44
68578;SHT31;61668;45.388;11.784;2022-10-22T15:05:05;21.23;67.50
68578;SHT31;61668;45.388;11.784;2022-10-22T15:07:32;21.17;67.82
68578;SHT31;61668;45.388;11.784;2022-10-22T15:09:57;21.14;68.18
68578;SHT31;61668;45.388;11.784;2022-10-22T15:12:23;21.10;68.34
68578;SHT31;61668;45.388;11.784;2022-10-22T15:14:48;21.07;68.26
68578;SHT31;61668;45.388;11.784;2022-10-22T15:17:14;21.05;68.16
68578;SHT31;61668;45.388;11.784;2022-10-22T15:19:41;21.04;68.06
68578;SHT31;61668;45.388;11.784;2022-10-22T15:22:08;21.03;68.12
68578;SHT31;61668;45.388;11.784;2022-10-22T15:24:34;21.01;67.89
68578;SHT31;61668;45.388;11.784;2022-10-22T15:27:01;20.98;67.78
68578;SHT31;61668;45.388;11.784;2022-10-22T15:29:27;20.96;67.68
68578;SHT31;61668;45.388;11.784;2022-10-22T15:31:54;20.91;67.64
68578;SHT31;61668;45.388;11.784;2022-10-22T15:34:31;20.88;67.79
68578;SHT31;61668;45.388;11.784;2022-10-22T15:36:59;20.82;68.14
68578;SHT31;61668;45.388;11.784;2022-10-22T15:39:27;20.75;68.32
68578;SHT31;61668;45.388;11.784;2022-10-22T15:41:54;20.69;68.51
68578;SHT31;61668;45.388;11.784;2022-10-22T15:44:27;20.64;68.46
68578;SHT31;61668;45.388;11.784;2022-10-22T15:46:55;20.58;68.57
68578;SHT31;61668;45.388;11.784;2022-10-22T15:49:22;20.54;68.92
68578;SHT31;61668;45.388;11.784;2022-10-22T15:51:50;20.51;69.20
68578;SHT31;61668;45.388;11.784;2022-10-22T15:54:17;20.51;69.38
68578;SHT31;61668;45.388;11.784;2022-10-22T15:56:47;20.48;69.53
68578;SHT31;61668;45.388;11.784;2022-10-22T15:59:14;20.41;69.72
68578;SHT31;61668;45.388;11.784;2022-10-22T16:01:41;20.35;69.91
68578;SHT31;61668;45.388;11.784;2022-10-22T16:04:07;20.28;69.99
68578;SHT31;61668;45.388;11.784;2022-10-22T16:06:34;20.25;70.08
68578;SHT31;61668;45.388;11.784;2022-10-22T16:09:03;20.24;70.32
68578;SHT31;61668;45.388;11.784;2022-10-22T16:11:32;20.20;70.40
68578;SHT31;61668;45.388;11.784;2022-10-22T16:14:00;20.14;70.57
68578;SHT31;61668;45.388;11.784;2022-10-22T16:16:26;20.08;70.77
68578;SHT31;61668;45.388;11.784;2022-10-22T16:18:55;20.01;70.98
68578;SHT31;61668;45.388;11.784;2022-10-22T16:21:21;19.95;71.19
68578;SHT31;61668;45.388;11.784;2022-10-22T16:23:48;19.90;71.39
68578;SHT31;61668;45.388;11.784;2022-10-22T16:26:15;19.86;71.59
68578;SHT31;61668;45.388;11.784;2022-10-22T16:28:42;19.81;71.78
68578;SHT31;61668;45.388;11.784;2022-10-22T16:31:10;19.78;71.94
68578;SHT31;61668;45.388;11.784;2022-10-22T16:33:40;19.75;72.04
68578;SHT31;61668;45.388;11.784;2022-10-22T16:36:09;19.69;72.21
68578;SHT31;61668;45.388;11.784;2022-10-22T16:38:37;19.63;72.38
68578;SHT31;61668;45.388;11.784;2022-10-22T16:41:09;19.57;72.58
68578;SHT31;61668;45.388;11.784;2022-10-22T16:43:39;19.53;72.75
68578;SHT31;61668;45.388;11.784;2022-10-22T16:46:09;19.49;72.90
68578;SHT31;61668;45.388;11.784;2022-10-22T16:48:35;19.46;73.11
68578;SHT31;61668;45.388;11.784;2022-10-22T16:51:05;19.43;73.29
68578;SHT31;61668;45.388;11.784;2022-10-22T16:53:34;19.40;73.49
68578;SHT31;61668;45.388;11.784;2022-10-22T16:56:00;19.40;73.65
68578;SHT31;61668;45.388;11.784;2022-10-22T16:58:25;19.38;73.70
68578;SHT31;61668;45.388;11.784;2022-10-22T17:00:52;19.33;73.87
68578;SHT31;61668;45.388;11.784;2022-10-22T17:03:17;19.31;74.02
68578;SHT31;61668;45.388;11.784;2022-10-22T17:05:43;19.28;74.13
68578;SHT31;61668;45.388;11.784;2022-10-22T17:08:08;19.25;74.39
68578;SHT31;61668;45.388;11.784;2022-10-22T17:10:34;19.22;74.57
68578;SHT31;61668;45.388;11.784;2022-10-22T17:13:01;19.21;74.72
68578;SHT31;61668;45.388;11.784;2022-10-22T17:15:28;19.18;74.84
68578;SHT31;61668;45.388;11.784;2022-10-22T17:17:54;19.17;74.97